Saturday, September 21, 2019, 1:26 PM EDT
Back to Local

KGFL, Floyd Bennett Memorial Airport

Location: Queensbury, NY, United States Lat: 43.333
Local Time: 1:26 PM EDT (17:26 GMT) Lon: -73.617
Time Zone: US/Eastern Elev: 328 ft

Show me the last for .
Show Coded

Time T Td Feel RH Dir Speed Gust Alt SLP Vis Weather Sky Remarks
2019-09-21 12:53 75 56 77 51 - Calm - 30.20 30.20 10 CLR None
2019-09-21 11:53 71 56 76 58 Variable 3 - 30.23 30.23 10 CLR None
2019-09-21 10:53 68 55 - 63 150° 5 - 30.24 30.25 10 CLR None
2019-09-21 09:53 63 55 - 75 - Calm - 30.25 30.26 10 CLR None
2019-09-21 08:53 57 54 - 89 - Calm - 30.26 30.26 10 CLR None
2019-09-21 07:53 50 49 - 96 - Calm - 30.24 30.25 10 CLR 6-hr Min Temp (8am): 45.0°F
6-hr Max Temp (8am): 50.0°F
2019-09-21 07:05 47 46 - 96 - Calm - 30.23 - 3 BR CLR None
2019-09-21 07:01 47 46 - 96 - Calm - 30.23 - 1 BR CLR None
2019-09-21 06:53 45 45 - 100 - Calm - 30.23 30.23 0 FG CLR None
2019-09-21 06:40 46 45 - 95 - Calm - 30.22 - 0 BR CLR None
2019-09-21 06:29 46 45 - 95 - Calm - 30.22 - 1 BR CLR None
2019-09-21 06:21 47 45 - 92 - Calm - 30.22 - 3 BR CLR None
2019-09-21 05:53 47 46 - 96 - Calm - 30.21 30.21 1 BR CLR None
2019-09-21 05:46 47 46 - 96 - Calm - 30.21 - 0 BR CLR None
2019-09-21 05:23 48 46 - 92 - Calm - 30.21 - 1 BR CLR None
2019-09-21 05:10 47 46 - 96 - Calm - 30.21 - 0 FG CLR None
2019-09-21 05:03 47 46 - 96 - Calm - 30.21 - 1 BR CLR None
2019-09-21 04:53 48 47 - 96 - Calm - 30.20 30.20 0 FG CLR None
2019-09-21 04:45 48 47 - 96 - Calm - 30.20 - 1 BR CLR None
2019-09-21 03:53 50 49 - 96 - Calm - 30.19 30.19 10 CLR None
2019-09-21 02:53 49 46 - 89 - Calm - 30.20 30.20 10 CLR None
2019-09-21 02:22 49 48 - 96 - Calm - 30.19 - 10 CLR None
2019-09-21 02:13 48 47 - 96 - Calm - 30.19 - 2 BR CLR None
2019-09-21 01:53 49 47 - 92 - Calm - 30.19 30.19 10 CLR 6-hr Min Temp (2am): 48.0°F
6-hr Max Temp (2am): 57.9°F
2019-09-21 01:37 49 47 - 92 - Calm - 30.18 - 4 BR CLR None
2019-09-21 01:26 48 47 - 96 - Calm - 30.18 - 1 BR CLR None
2019-09-21 01:00 49 48 - 96 - Calm - 30.18 - 9 CLR None
2019-09-21 00:53 48 47 - 96 - Calm - 30.18 30.19 2 BR CLR 24-hr Min Temp (1am): 35.1°F
24-hr Max Temp (1am): 73.9°F
2019-09-21 00:46 48 47 - 96 - Calm - 30.18 - 1 BR CLR Variable visibility
2019-09-21 00:35 50 49 - 96 - Calm - 30.18 - 3 BR CLR None
2019-09-21 00:21 48 47 - 96 - Calm - 30.18 - 1 BR CLR None
2019-09-20 23:53 50 48 - 92 - Calm - 30.16 30.16 10 CLR None
2019-09-20 23:38 51 49 - 92 - Calm - 30.16 - 10 CLR None
2019-09-20 23:31 50 49 - 96 - Calm - 30.16 - 2 BR CLR None
2019-09-20 23:23 49 48 - 96 - Calm - 30.16 - 0 FG CLR None
2019-09-20 23:14 50 49 - 96 - Calm - 30.16 - 1 BR CLR None
2019-09-20 23:05 52 50 - 92 - Calm - 30.17 - 3 BR CLR None
2019-09-20 22:53 50 49 - 96 - Calm - 30.17 30.18 1 BR CLR None
2019-09-20 22:50 52 50 - 93 - Calm - 30.17 - 1 BR CLR None
2019-09-20 22:24 51 50 - 96 - Calm - 30.17 - 4 BR CLR None
2019-09-20 21:58 52 50 - 92 - Calm - 30.16 - 1 BR CLR Variable visibility
2019-09-20 21:53 53 51 - 92 - Calm - 30.16 30.17 6 BR CLR None
2019-09-20 21:36 53 52 - 96 - Calm - 30.17 - 3 BR CLR None
2019-09-20 21:29 54 53 - 96 - Calm - 30.16 - 1 BR CLR None
2019-09-20 20:53 56 54 - 93 - Calm - 30.16 30.16 10 CLR None
2019-09-20 19:53 58 55 - 90 - Calm - 30.15 30.16 10 CLR 6-hr Min Temp (8pm): 57.9°F
6-hr Max Temp (8pm): 73.9°F
2019-09-20 18:53 62 56 - 80 - Calm - 30.14 30.14 10 CLR None
2019-09-20 17:53 72 54 76 53 170° 5 - 30.14 30.14 10 CLR None
2019-09-20 16:53 74 53 77 48 140° 7 - 30.14 30.14 10 CLR None
2019-09-20 15:53 73 52 76 47 160° 6 - 30.14 30.15 10 CLR None
2019-09-20 14:53 73 51 76 46 180° 6 - 30.15 30.16 10 CLR None
2019-09-20 13:53 71 49 76 45 - Calm - 30.17 30.18 10 CLR 6-hr Min Temp (2pm): 43.0°F
6-hr Max Temp (2pm): 71.1°F

Support USWX by starting your Amazon purchase here.